sensor_id;sensor_type;location;lat;lon;timestamp;P1;durP1;ratioP1;P2;durP2;ratioP2
71087;SDS011;58747;50.674;4.616;2022-12-07T00:01:29;28.10;;;14.80;;
71087;SDS011;58747;50.674;4.616;2022-12-07T00:03:59;26.52;;;14.45;;
71087;SDS011;58747;50.674;4.616;2022-12-07T00:06:29;22.33;;;13.77;;
71087;SDS011;58747;50.674;4.616;2022-12-07T00:08:58;28.58;;;14.00;;
71087;SDS011;58747;50.674;4.616;2022-12-07T00:11:24;30.37;;;15.07;;
71087;SDS011;58747;50.674;4.616;2022-12-07T00:13:53;24.10;;;13.65;;
71087;SDS011;58747;50.674;4.616;2022-12-07T00:16:20;23.75;;;14.35;;
71087;SDS011;58747;50.674;4.616;2022-12-07T00:18:47;24.87;;;14.13;;
71087;SDS011;58747;50.674;4.616;2022-12-07T00:21:32;25.33;;;14.30;;
71087;SDS011;58747;50.674;4.616;2022-12-07T00:23:59;27.20;;;14.40;;
71087;SDS011;58747;50.674;4.616;2022-12-07T00:26:26;24.70;;;13.90;;
71087;SDS011;58747;50.674;4.616;2022-12-07T00:28:54;24.17;;;14.25;;
71087;SDS011;58747;50.674;4.616;2022-12-07T00:31:26;28.50;;;14.57;;
71087;SDS011;58747;50.674;4.616;2022-12-07T00:33:54;28.50;;;14.10;;
71087;SDS011;58747;50.674;4.616;2022-12-07T00:36:21;27.07;;;14.03;;
71087;SDS011;58747;50.674;4.616;2022-12-07T00:38:47;28.38;;;14.52;;
71087;SDS011;58747;50.674;4.616;2022-12-07T00:41:16;29.93;;;14.30;;
71087;SDS011;58747;50.674;4.616;2022-12-07T00:43:44;24.48;;;14.32;;
71087;SDS011;58747;50.674;4.616;2022-12-07T00:46:10;23.50;;;14.23;;
71087;SDS011;58747;50.674;4.616;2022-12-07T00:48:36;24.00;;;13.63;;
71087;SDS011;58747;50.674;4.616;2022-12-07T00:51:02;24.17;;;13.73;;
71087;SDS011;58747;50.674;4.616;2022-12-07T00:53:28;25.55;;;14.07;;
71087;SDS011;58747;50.674;4.616;2022-12-07T00:55:54;23.57;;;14.00;;
71087;SDS011;58747;50.674;4.616;2022-12-07T00:58:21;25.55;;;14.75;;
71087;SDS011;58747;50.674;4.616;2022-12-07T01:00:46;24.90;;;13.23;;
71087;SDS011;58747;50.674;4.616;2022-12-07T01:03:13;25.80;;;14.43;;
71087;SDS011;58747;50.674;4.616;2022-12-07T01:05:39;25.10;;;14.57;;
71087;SDS011;58747;50.674;4.616;2022-12-07T01:08:05;25.02;;;13.63;;
71087;SDS011;58747;50.674;4.616;2022-12-07T01:10:31;28.00;;;14.30;;
71087;SDS011;58747;50.674;4.616;2022-12-07T01:12:57;25.48;;;14.63;;
71087;SDS011;58747;50.674;4.616;2022-12-07T01:15:24;24.88;;;14.70;;
71087;SDS011;58747;50.674;4.616;2022-12-07T01:17:50;29.80;;;14.65;;
71087;SDS011;58747;50.674;4.616;2022-12-07T01:20:15;26.47;;;15.43;;
71087;SDS011;58747;50.674;4.616;2022-12-07T01:22:41;23.10;;;14.20;;
71087;SDS011;58747;50.674;4.616;2022-12-07T01:25:08;27.08;;;14.60;;
71087;SDS011;58747;50.674;4.616;2022-12-07T01:27:35;26.40;;;14.32;;
71087;SDS011;58747;50.674;4.616;2022-12-07T01:30:01;26.25;;;15.05;;
71087;SDS011;58747;50.674;4.616;2022-12-07T01:32:28;26.15;;;15.82;;
71087;SDS011;58747;50.674;4.616;2022-12-07T01:34:53;24.93;;;15.07;;
71087;SDS011;58747;50.674;4.616;2022-12-07T01:37:19;28.40;;;15.82;;
71087;SDS011;58747;50.674;4.616;2022-12-07T01:39:44;27.97;;;13.83;;
71087;SDS011;58747;50.674;4.616;2022-12-07T01:42:13;27.17;;;14.67;;
71087;SDS011;58747;50.674;4.616;2022-12-07T01:45:16;24.40;;;14.82;;
71087;SDS011;58747;50.674;4.616;2022-12-07T01:47:52;26.20;;;13.40;;
71087;SDS011;58747;50.674;4.616;2022-12-07T01:50:20;26.00;;;14.32;;
71087;SDS011;58747;50.674;4.616;2022-12-07T01:52:49;28.67;;;15.18;;
71087;SDS011;58747;50.674;4.616;2022-12-07T01:55:17;25.10;;;14.80;;
71087;SDS011;58747;50.674;4.616;2022-12-07T01:57:44;26.20;;;15.17;;
71087;SDS011;58747;50.674;4.616;2022-12-07T02:00:13;27.88;;;13.50;;
71087;SDS011;58747;50.674;4.616;2022-12-07T02:02:44;27.15;;;14.35;;
71087;SDS011;58747;50.674;4.616;2022-12-07T02:05:13;23.33;;;14.07;;
71087;SDS011;58747;50.674;4.616;2022-12-07T02:07:39;20.45;;;12.95;;
71087;SDS011;58747;50.674;4.616;2022-12-07T02:10:12;24.77;;;14.40;;
71087;SDS011;58747;50.674;4.616;2022-12-07T02:12:42;28.90;;;14.32;;
71087;SDS011;58747;50.674;4.616;2022-12-07T02:15:13;28.38;;;15.80;;
71087;SDS011;58747;50.674;4.616;2022-12-07T02:17:45;24.77;;;14.23;;
71087;SDS011;58747;50.674;4.616;2022-12-07T02:31:39;26.90;;;14.27;;
71087;SDS011;58747;50.674;4.616;2022-12-07T02:34:20;32.30;;;16.17;;
71087;SDS011;58747;50.674;4.616;2022-12-07T02:36:55;26.70;;;14.95;;
71087;SDS011;58747;50.674;4.616;2022-12-07T02:39:30;30.85;;;15.40;;
71087;SDS011;58747;50.674;4.616;2022-12-07T02:42:07;26.00;;;14.30;;
71087;SDS011;58747;50.674;4.616;2022-12-07T02:44:38;28.58;;;15.05;;
71087;SDS011;58747;50.674;4.616;2022-12-07T02:47:06;25.15;;;14.65;;
71087;SDS011;58747;50.674;4.616;2022-12-07T02:49:35;26.05;;;14.45;;
71087;SDS011;58747;50.674;4.616;2022-12-07T02:52:02;26.42;;;15.25;;
71087;SDS011;58747;50.674;4.616;2022-12-07T02:54:27;26.60;;;14.90;;
71087;SDS011;58747;50.674;4.616;2022-12-07T03:04:46;25.67;;;14.68;;
71087;SDS011;58747;50.674;4.616;2022-12-07T03:10:22;26.83;;;16.15;;
71087;SDS011;58747;50.674;4.616;2022-12-07T03:15:46;23.30;;;14.35;;
71087;SDS011;58747;50.674;4.616;2022-12-07T03:18:21;25.90;;;13.50;;
71087;SDS011;58747;50.674;4.616;2022-12-07T03:20:49;26.05;;;14.23;;
71087;SDS011;58747;50.674;4.616;2022-12-07T03:23:18;23.55;;;14.63;;
71087;SDS011;58747;50.674;4.616;2022-12-07T03:25:47;26.73;;;14.35;;
71087;SDS011;58747;50.674;4.616;2022-12-07T03:28:18;27.17;;;14.45;;
71087;SDS011;58747;50.674;4.616;2022-12-07T03:30:47;24.50;;;13.35;;
71087;SDS011;58747;50.674;4.616;2022-12-07T03:33:24;25.75;;;16.65;;
71087;SDS011;58747;50.674;4.616;2022-12-07T03:36:05;24.65;;;15.35;;
71087;SDS011;58747;50.674;4.616;2022-12-07T03:38:44;23.50;;;14.52;;
71087;SDS011;58747;50.674;4.616;2022-12-07T03:41:19;23.88;;;13.77;;
71087;SDS011;58747;50.674;4.616;2022-12-07T03:43:51;26.45;;;13.98;;
71087;SDS011;58747;50.674;4.616;2022-12-07T03:49:11;22.23;;;14.10;;
71087;SDS011;58747;50.674;4.616;2022-12-07T03:54:36;22.85;;;12.93;;
71087;SDS011;58747;50.674;4.616;2022-12-07T03:57:05;21.30;;;12.05;;
71087;SDS011;58747;50.674;4.616;2022-12-07T03:59:32;21.83;;;13.40;;
71087;SDS011;58747;50.674;4.616;2022-12-07T04:02:02;26.13;;;13.97;;
71087;SDS011;58747;50.674;4.616;2022-12-07T04:04:30;24.13;;;12.80;;
71087;SDS011;58747;50.674;4.616;2022-12-07T04:06:55;16.63;;;11.63;;
71087;SDS011;58747;50.674;4.616;2022-12-07T04:09:21;21.30;;;13.00;;
71087;SDS011;58747;50.674;4.616;2022-12-07T04:11:46;19.00;;;12.43;;
71087;SDS011;58747;50.674;4.616;2022-12-07T04:14:11;19.37;;;12.10;;
71087;SDS011;58747;50.674;4.616;2022-12-07T04:16:44;19.60;;;12.38;;
71087;SDS011;58747;50.674;4.616;2022-12-07T04:19:13;21.63;;;12.82;;
71087;SDS011;58747;50.674;4.616;2022-12-07T04:21:39;23.50;;;12.77;;
71087;SDS011;58747;50.674;4.616;2022-12-07T04:24:05;17.42;;;11.73;;
71087;SDS011;58747;50.674;4.616;2022-12-07T04:26:30;24.90;;;13.57;;
71087;SDS011;58747;50.674;4.616;2022-12-07T04:28:55;23.47;;;13.23;;
71087;SDS011;58747;50.674;4.616;2022-12-07T04:31:21;22.10;;;11.90;;
71087;SDS011;58747;50.674;4.616;2022-12-07T04:33:46;19.10;;;12.48;;
71087;SDS011;58747;50.674;4.616;2022-12-07T04:36:11;21.37;;;12.43;;
71087;SDS011;58747;50.674;4.616;2022-12-07T04:38:37;20.20;;;11.73;;
71087;SDS011;58747;50.674;4.616;2022-12-07T04:41:05;20.27;;;12.03;;
71087;SDS011;58747;50.674;4.616;2022-12-07T04:43:32;20.88;;;12.95;;
71087;SDS011;58747;50.674;4.616;2022-12-07T04:45:58;19.33;;;12.43;;
71087;SDS011;58747;50.674;4.616;2022-12-07T04:48:23;22.48;;;11.40;;
71087;SDS011;58747;50.674;4.616;2022-12-07T04:50:48;15.63;;;10.30;;
71087;SDS011;58747;50.674;4.616;2022-12-07T04:53:17;18.00;;;11.18;;
71087;SDS011;58747;50.674;4.616;2022-12-07T04:55:43;19.10;;;11.43;;
71087;SDS011;58747;50.674;4.616;2022-12-07T04:58:09;17.85;;;12.07;;
71087;SDS011;58747;50.674;4.616;2022-12-07T05:00:34;21.20;;;11.03;;
71087;SDS011;58747;50.674;4.616;2022-12-07T05:02:59;17.70;;;11.57;;
71087;SDS011;58747;50.674;4.616;2022-12-07T05:05:25;23.13;;;12.50;;
71087;SDS011;58747;50.674;4.616;2022-12-07T05:07:50;18.97;;;12.10;;
71087;SDS011;58747;50.674;4.616;2022-12-07T05:10:16;20.70;;;11.57;;
71087;SDS011;58747;50.674;4.616;2022-12-07T05:12:41;19.50;;;12.10;;
71087;SDS011;58747;50.674;4.616;2022-12-07T05:15:06;20.13;;;12.73;;
71087;SDS011;58747;50.674;4.616;2022-12-07T05:17:32;22.77;;;12.10;;
71087;SDS011;58747;50.674;4.616;2022-12-07T05:19:57;17.40;;;11.20;;
71087;SDS011;58747;50.674;4.616;2022-12-07T05:22:23;20.63;;;11.47;;
71087;SDS011;58747;50.674;4.616;2022-12-07T05:24:52;24.58;;;12.93;;
71087;SDS011;58747;50.674;4.616;2022-12-07T05:27:18;26.63;;;12.63;;
71087;SDS011;58747;50.674;4.616;2022-12-07T05:29:43;23.87;;;13.03;;
71087;SDS011;58747;50.674;4.616;2022-12-07T05:32:09;21.97;;;13.30;;
71087;SDS011;58747;50.674;4.616;2022-12-07T05:34:34;23.67;;;13.73;;
71087;SDS011;58747;50.674;4.616;2022-12-07T05:36:59;23.80;;;12.93;;
71087;SDS011;58747;50.674;4.616;2022-12-07T05:39:25;22.87;;;13.83;;
71087;SDS011;58747;50.674;4.616;2022-12-07T05:41:50;21.87;;;12.60;;
71087;SDS011;58747;50.674;4.616;2022-12-07T05:44:34;21.25;;;12.68;;
71087;SDS011;58747;50.674;4.616;2022-12-07T05:46:59;21.93;;;11.93;;
71087;SDS011;58747;50.674;4.616;2022-12-07T05:49:24;24.03;;;13.30;;
71087;SDS011;58747;50.674;4.616;2022-12-07T05:51:50;24.50;;;12.57;;
71087;SDS011;58747;50.674;4.616;2022-12-07T05:54:15;24.75;;;13.63;;
71087;SDS011;58747;50.674;4.616;2022-12-07T05:56:40;24.27;;;15.27;;
71087;SDS011;58747;50.674;4.616;2022-12-07T05:59:06;30.33;;;16.07;;
71087;SDS011;58747;50.674;4.616;2022-12-07T06:04:19;25.80;;;13.82;;
71087;SDS011;58747;50.674;4.616;2022-12-07T06:06:46;27.42;;;14.75;;
71087;SDS011;58747;50.674;4.616;2022-12-07T06:09:11;26.02;;;14.80;;
71087;SDS011;58747;50.674;4.616;2022-12-07T06:11:37;23.95;;;14.02;;
71087;SDS011;58747;50.674;4.616;2022-12-07T06:14:22;26.17;;;14.98;;
71087;SDS011;58747;50.674;4.616;2022-12-07T06:16:47;27.43;;;15.03;;
71087;SDS011;58747;50.674;4.616;2022-12-07T06:19:13;24.53;;;14.37;;
71087;SDS011;58747;50.674;4.616;2022-12-07T06:21:38;25.02;;;15.02;;
71087;SDS011;58747;50.674;4.616;2022-12-07T06:24:04;23.20;;;13.77;;
71087;SDS011;58747;50.674;4.616;2022-12-07T06:26:30;22.30;;;14.20;;
71087;SDS011;58747;50.674;4.616;2022-12-07T06:28:55;25.30;;;14.07;;
71087;SDS011;58747;50.674;4.616;2022-12-07T06:31:20;24.83;;;14.83;;
71087;SDS011;58747;50.674;4.616;2022-12-07T06:33:46;23.30;;;14.10;;
71087;SDS011;58747;50.674;4.616;2022-12-07T06:36:11;21.95;;;14.02;;
71087;SDS011;58747;50.674;4.616;2022-12-07T06:38:37;25.87;;;14.13;;
71087;SDS011;58747;50.674;4.616;2022-12-07T06:41:03;24.97;;;13.67;;
71087;SDS011;58747;50.674;4.616;2022-12-07T06:43:28;24.52;;;12.88;;
71087;SDS011;58747;50.674;4.616;2022-12-07T06:45:54;24.87;;;14.27;;
71087;SDS011;58747;50.674;4.616;2022-12-07T06:48:19;22.00;;;12.73;;
71087;SDS011;58747;50.674;4.616;2022-12-07T06:50:45;24.87;;;13.73;;
71087;SDS011;58747;50.674;4.616;2022-12-07T06:53:11;19.52;;;12.85;;
71087;SDS011;58747;50.674;4.616;2022-12-07T06:55:36;23.77;;;13.63;;
71087;SDS011;58747;50.674;4.616;2022-12-07T06:58:02;24.47;;;13.20;;
71087;SDS011;58747;50.674;4.616;2022-12-07T07:00:28;24.33;;;13.95;;
71087;SDS011;58747;50.674;4.616;2022-12-07T07:02:53;24.43;;;13.30;;
71087;SDS011;58747;50.674;4.616;2022-12-07T07:05:20;27.23;;;13.90;;
71087;SDS011;58747;50.674;4.616;2022-12-07T07:07:47;20.20;;;13.77;;
71087;SDS011;58747;50.674;4.616;2022-12-07T07:10:13;20.45;;;13.00;;
71087;SDS011;58747;50.674;4.616;2022-12-07T07:12:38;22.17;;;13.30;;
71087;SDS011;58747;50.674;4.616;2022-12-07T07:15:04;23.03;;;13.30;;
71087;SDS011;58747;50.674;4.616;2022-12-07T07:17:29;23.73;;;14.05;;
71087;SDS011;58747;50.674;4.616;2022-12-07T07:19:55;25.47;;;14.33;;
71087;SDS011;58747;50.674;4.616;2022-12-07T07:22:20;24.83;;;13.07;;
71087;SDS011;58747;50.674;4.616;2022-12-07T07:24:45;24.17;;;12.70;;
71087;SDS011;58747;50.674;4.616;2022-12-07T07:27:11;21.07;;;13.67;;
71087;SDS011;58747;50.674;4.616;2022-12-07T07:29:36;26.60;;;14.23;;
71087;SDS011;58747;50.674;4.616;2022-12-07T07:32:01;22.73;;;13.87;;
71087;SDS011;58747;50.674;4.616;2022-12-07T07:34:27;22.93;;;13.00;;
71087;SDS011;58747;50.674;4.616;2022-12-07T07:36:52;22.08;;;13.65;;
71087;SDS011;58747;50.674;4.616;2022-12-07T07:39:17;21.58;;;12.73;;
71087;SDS011;58747;50.674;4.616;2022-12-07T07:41:43;21.50;;;11.60;;
71087;SDS011;58747;50.674;4.616;2022-12-07T07:44:09;20.80;;;12.50;;
71087;SDS011;58747;50.674;4.616;2022-12-07T07:46:34;20.77;;;12.32;;
71087;SDS011;58747;50.674;4.616;2022-12-07T07:49:00;23.67;;;12.63;;
71087;SDS011;58747;50.674;4.616;2022-12-07T07:51:25;23.47;;;12.10;;
71087;SDS011;58747;50.674;4.616;2022-12-07T07:53:50;21.83;;;12.63;;
71087;SDS011;58747;50.674;4.616;2022-12-07T07:56:16;24.83;;;13.23;;
71087;SDS011;58747;50.674;4.616;2022-12-07T07:58:41;25.17;;;13.40;;
71087;SDS011;58747;50.674;4.616;2022-12-07T08:01:06;23.10;;;12.83;;
71087;SDS011;58747;50.674;4.616;2022-12-07T08:03:32;26.67;;;11.63;;
71087;SDS011;58747;50.674;4.616;2022-12-07T08:05:57;16.80;;;9.77;;
71087;SDS011;58747;50.674;4.616;2022-12-07T08:08:23;25.97;;;14.27;;
71087;SDS011;58747;50.674;4.616;2022-12-07T08:10:48;28.95;;;14.57;;
71087;SDS011;58747;50.674;4.616;2022-12-07T08:13:17;22.77;;;13.07;;
71087;SDS011;58747;50.674;4.616;2022-12-07T08:15:44;24.53;;;12.40;;
71087;SDS011;58747;50.674;4.616;2022-12-07T08:18:11;18.30;;;12.05;;
71087;SDS011;58747;50.674;4.616;2022-12-07T08:20:38;21.02;;;11.43;;
71087;SDS011;58747;50.674;4.616;2022-12-07T08:23:04;22.38;;;12.90;;
71087;SDS011;58747;50.674;4.616;2022-12-07T08:25:30;21.37;;;11.83;;
71087;SDS011;58747;50.674;4.616;2022-12-07T08:27:56;22.27;;;12.43;;
71087;SDS011;58747;50.674;4.616;2022-12-07T08:30:21;19.87;;;12.50;;
71087;SDS011;58747;50.674;4.616;2022-12-07T08:32:47;27.90;;;14.75;;
71087;SDS011;58747;50.674;4.616;2022-12-07T08:35:13;75.17;;;32.60;;
71087;SDS011;58747;50.674;4.616;2022-12-07T08:37:39;30.95;;;18.15;;
71087;SDS011;58747;50.674;4.616;2022-12-07T08:40:05;27.25;;;15.90;;
71087;SDS011;58747;50.674;4.616;2022-12-07T08:42:32;27.10;;;15.75;;
71087;SDS011;58747;50.674;4.616;2022-12-07T08:45:05;27.40;;;16.80;;
71087;SDS011;58747;50.674;4.616;2022-12-07T08:47:35;30.00;;;17.52;;
71087;SDS011;58747;50.674;4.616;2022-12-07T08:50:04;25.05;;;14.13;;
71087;SDS011;58747;50.674;4.616;2022-12-07T08:52:32;29.10;;;17.35;;
71087;SDS011;58747;50.674;4.616;2022-12-07T08:54:58;26.40;;;15.18;;
71087;SDS011;58747;50.674;4.616;2022-12-07T08:57:26;25.85;;;13.60;;
71087;SDS011;58747;50.674;4.616;2022-12-07T08:59:53;20.77;;;12.95;;
71087;SDS011;58747;50.674;4.616;2022-12-07T09:02:18;23.40;;;14.70;;
71087;SDS011;58747;50.674;4.616;2022-12-07T09:04:44;19.35;;;12.75;;
71087;SDS011;58747;50.674;4.616;2022-12-07T09:07:09;18.90;;;12.80;;
71087;SDS011;58747;50.674;4.616;2022-12-07T09:09:34;21.80;;;13.33;;
71087;SDS011;58747;50.674;4.616;2022-12-07T09:12:00;22.67;;;13.17;;
71087;SDS011;58747;50.674;4.616;2022-12-07T09:14:25;26.57;;;13.33;;
71087;SDS011;58747;50.674;4.616;2022-12-07T09:16:50;20.93;;;11.83;;
71087;SDS011;58747;50.674;4.616;2022-12-07T09:19:16;21.88;;;14.32;;
71087;SDS011;58747;50.674;4.616;2022-12-07T09:21:41;20.53;;;13.27;;
71087;SDS011;58747;50.674;4.616;2022-12-07T09:24:06;27.83;;;14.87;;
71087;SDS011;58747;50.674;4.616;2022-12-07T09:26:32;26.17;;;12.77;;
71087;SDS011;58747;50.674;4.616;2022-12-07T09:28:57;21.90;;;12.23;;
71087;SDS011;58747;50.674;4.616;2022-12-07T09:31:22;27.33;;;12.93;;
71087;SDS011;58747;50.674;4.616;2022-12-07T09:33:52;20.05;;;12.32;;
71087;SDS011;58747;50.674;4.616;2022-12-07T09:36:27;21.03;;;12.67;;
71087;SDS011;58747;50.674;4.616;2022-12-07T09:38:53;19.30;;;11.77;;
71087;SDS011;58747;50.674;4.616;2022-12-07T09:41:19;17.50;;;12.07;;
71087;SDS011;58747;50.674;4.616;2022-12-07T09:43:45;23.45;;;13.15;;
71087;SDS011;58747;50.674;4.616;2022-12-07T09:46:13;19.63;;;11.95;;
71087;SDS011;58747;50.674;4.616;2022-12-07T09:48:42;24.00;;;11.85;;
71087;SDS011;58747;50.674;4.616;2022-12-07T09:51:15;15.77;;;9.23;;
71087;SDS011;58747;50.674;4.616;2022-12-07T09:53:48;14.50;;;9.70;;
71087;SDS011;58747;50.674;4.616;2022-12-07T09:56:14;17.33;;;9.63;;
71087;SDS011;58747;50.674;4.616;2022-12-07T09:58:42;14.63;;;9.35;;
71087;SDS011;58747;50.674;4.616;2022-12-07T10:03:37;17.37;;;9.83;;
71087;SDS011;58747;50.674;4.616;2022-12-07T10:06:04;19.33;;;9.02;;
71087;SDS011;58747;50.674;4.616;2022-12-07T10:08:30;12.68;;;7.78;;
71087;SDS011;58747;50.674;4.616;2022-12-07T10:10:56;10.33;;;7.37;;
71087;SDS011;58747;50.674;4.616;2022-12-07T12:25:42;5.67;;;3.17;;
71087;SDS011;58747;50.674;4.616;2022-12-07T12:33:32;11.63;;;4.15;;
71087;SDS011;58747;50.674;4.616;2022-12-07T12:46:55;9.50;;;5.32;;
71087;SDS011;58747;50.674;4.616;2022-12-07T12:51:53;7.83;;;3.43;;
71087;SDS011;58747;50.674;4.616;2022-12-07T12:54:26;9.65;;;4.25;;
71087;SDS011;58747;50.674;4.616;2022-12-07T12:57:05;8.27;;;3.88;;
71087;SDS011;58747;50.674;4.616;2022-12-07T13:15:36;5.78;;;3.97;;
71087;SDS011;58747;50.674;4.616;2022-12-07T13:18:04;6.97;;;4.37;;
71087;SDS011;58747;50.674;4.616;2022-12-07T13:20:55;7.00;;;4.15;;
71087;SDS011;58747;50.674;4.616;2022-12-07T13:23:21;6.07;;;4.18;;
71087;SDS011;58747;50.674;4.616;2022-12-07T13:28:39;10.07;;;4.10;;
71087;SDS011;58747;50.674;4.616;2022-12-07T13:31:25;10.07;;;4.27;;
71087;SDS011;58747;50.674;4.616;2022-12-07T13:33:54;6.43;;;3.83;;
71087;SDS011;58747;50.674;4.616;2022-12-07T13:36:33;6.10;;;3.70;;
71087;SDS011;58747;50.674;4.616;2022-12-07T13:39:23;5.95;;;3.85;;
71087;SDS011;58747;50.674;4.616;2022-12-07T13:42:06;7.45;;;3.53;;
71087;SDS011;58747;50.674;4.616;2022-12-07T13:44:46;6.60;;;3.13;;
71087;SDS011;58747;50.674;4.616;2022-12-07T13:47:31;6.80;;;3.50;;
71087;SDS011;58747;50.674;4.616;2022-12-07T13:50:01;5.70;;;3.53;;
71087;SDS011;58747;50.674;4.616;2022-12-07T13:52:27;6.13;;;3.25;;
71087;SDS011;58747;50.674;4.616;2022-12-07T13:54:58;5.72;;;3.25;;
71087;SDS011;58747;50.674;4.616;2022-12-07T13:57:30;6.70;;;2.77;;
71087;SDS011;58747;50.674;4.616;2022-12-07T13:59:59;5.68;;;2.70;;
71087;SDS011;58747;50.674;4.616;2022-12-07T14:02:30;7.07;;;2.63;;
71087;SDS011;58747;50.674;4.616;2022-12-07T14:07:48;6.28;;;2.38;;
71087;SDS011;58747;50.674;4.616;2022-12-07T14:10:28;6.23;;;2.20;;
71087;SDS011;58747;50.674;4.616;2022-12-07T14:13:02;3.80;;;2.15;;
71087;SDS011;58747;50.674;4.616;2022-12-07T14:15:44;6.22;;;2.88;;
71087;SDS011;58747;50.674;4.616;2022-12-07T14:23:36;4.03;;;2.40;;
71087;SDS011;58747;50.674;4.616;2022-12-07T14:26:18;4.97;;;2.80;;
71087;SDS011;58747;50.674;4.616;2022-12-07T14:28:45;4.53;;;3.00;;
71087;SDS011;58747;50.674;4.616;2022-12-07T14:31:15;4.55;;;2.50;;
71087;SDS011;58747;50.674;4.616;2022-12-07T14:33:42;4.65;;;2.25;;
71087;SDS011;58747;50.674;4.616;2022-12-07T14:36:08;4.67;;;2.50;;
71087;SDS011;58747;50.674;4.616;2022-12-07T14:38:35;7.25;;;2.95;;
71087;SDS011;58747;50.674;4.616;2022-12-07T14:41:01;4.80;;;2.70;;
71087;SDS011;58747;50.674;4.616;2022-12-07T14:43:45;10.70;;;3.53;;
71087;SDS011;58747;50.674;4.616;2022-12-07T14:46:11;3.47;;;2.60;;
71087;SDS011;58747;50.674;4.616;2022-12-07T14:48:36;7.80;;;2.73;;
71087;SDS011;58747;50.674;4.616;2022-12-07T14:51:01;5.33;;;2.90;;
71087;SDS011;58747;50.674;4.616;2022-12-07T14:53:29;5.55;;;2.70;;
71087;SDS011;58747;50.674;4.616;2022-12-07T14:55:58;6.82;;;3.20;;
71087;SDS011;58747;50.674;4.616;2022-12-07T14:58:23;4.53;;;2.57;;
71087;SDS011;58747;50.674;4.616;2022-12-07T15:00:49;7.60;;;2.30;;
71087;SDS011;58747;50.674;4.616;2022-12-07T15:03:14;5.97;;;3.03;;
71087;SDS011;58747;50.674;4.616;2022-12-07T15:05:40;8.83;;;3.20;;
71087;SDS011;58747;50.674;4.616;2022-12-07T15:08:06;8.98;;;4.35;;
71087;SDS011;58747;50.674;4.616;2022-12-07T15:10:32;5.40;;;3.33;;
71087;SDS011;58747;50.674;4.616;2022-12-07T15:12:59;8.40;;;3.40;;
71087;SDS011;58747;50.674;4.616;2022-12-07T15:15:46;8.00;;;4.05;;
71087;SDS011;58747;50.674;4.616;2022-12-07T15:18:15;6.32;;;3.53;;
71087;SDS011;58747;50.674;4.616;2022-12-07T15:20:41;6.28;;;3.15;;
71087;SDS011;58747;50.674;4.616;2022-12-07T15:23:06;5.70;;;2.80;;
71087;SDS011;58747;50.674;4.616;2022-12-07T15:25:32;5.27;;;3.30;;
71087;SDS011;58747;50.674;4.616;2022-12-07T15:27:58;5.83;;;3.07;;
71087;SDS011;58747;50.674;4.616;2022-12-07T15:30:24;5.03;;;2.33;;
71087;SDS011;58747;50.674;4.616;2022-12-07T15:32:49;3.60;;;1.95;;
71087;SDS011;58747;50.674;4.616;2022-12-07T15:35:15;4.03;;;2.53;;
71087;SDS011;58747;50.674;4.616;2022-12-07T15:37:41;6.20;;;2.10;;
71087;SDS011;58747;50.674;4.616;2022-12-07T15:40:06;3.00;;;1.97;;
71087;SDS011;58747;50.674;4.616;2022-12-07T15:42:32;2.50;;;1.60;;
71087;SDS011;58747;50.674;4.616;2022-12-07T15:44:57;4.13;;;1.50;;
71087;SDS011;58747;50.674;4.616;2022-12-07T15:47:29;1.67;;;1.27;;
71087;SDS011;58747;50.674;4.616;2022-12-07T15:49:55;3.15;;;2.83;;
71087;SDS011;58747;50.674;4.616;2022-12-07T15:52:21;3.50;;;1.47;;
71087;SDS011;58747;50.674;4.616;2022-12-07T15:54:46;5.27;;;2.00;;
71087;SDS011;58747;50.674;4.616;2022-12-07T15:57:12;3.95;;;2.10;;
71087;SDS011;58747;50.674;4.616;2022-12-07T15:59:38;6.23;;;2.83;;
71087;SDS011;58747;50.674;4.616;2022-12-07T16:02:03;5.13;;;2.83;;
71087;SDS011;58747;50.674;4.616;2022-12-07T16:04:29;5.37;;;2.67;;
71087;SDS011;58747;50.674;4.616;2022-12-07T16:06:54;4.50;;;3.07;;
71087;SDS011;58747;50.674;4.616;2022-12-07T16:09:20;9.73;;;4.78;;
71087;SDS011;58747;50.674;4.616;2022-12-07T16:11:46;11.80;;;6.47;;
71087;SDS011;58747;50.674;4.616;2022-12-07T16:14:11;12.05;;;5.72;;
71087;SDS011;58747;50.674;4.616;2022-12-07T16:16:37;12.57;;;6.50;;
71087;SDS011;58747;50.674;4.616;2022-12-07T16:19:05;9.52;;;5.90;;
71087;SDS011;58747;50.674;4.616;2022-12-07T16:21:30;9.52;;;5.55;;
71087;SDS011;58747;50.674;4.616;2022-12-07T16:23:57;10.00;;;4.90;;
71087;SDS011;58747;50.674;4.616;2022-12-07T16:26:23;8.05;;;4.70;;
71087;SDS011;58747;50.674;4.616;2022-12-07T16:28:49;11.47;;;7.77;;
71087;SDS011;58747;50.674;4.616;2022-12-07T16:31:16;10.65;;;6.20;;
71087;SDS011;58747;50.674;4.616;2022-12-07T16:33:42;13.13;;;9.83;;
71087;SDS011;58747;50.674;4.616;2022-12-07T16:36:09;8.90;;;5.88;;
71087;SDS011;58747;50.674;4.616;2022-12-07T16:38:36;5.57;;;4.07;;
71087;SDS011;58747;50.674;4.616;2022-12-07T18:14:04;12.47;;;7.40;;
71087;SDS011;58747;50.674;4.616;2022-12-07T18:17:29;11.93;;;7.40;;
71087;SDS011;58747;50.674;4.616;2022-12-07T18:28:00;11.38;;;6.85;;
71087;SDS011;58747;50.674;4.616;2022-12-07T18:47:01;14.50;;;10.57;;
71087;SDS011;58747;50.674;4.616;2022-12-07T18:52:32;16.50;;;9.05;;
71087;SDS011;58747;50.674;4.616;2022-12-07T18:54:58;15.75;;;10.60;;
71087;SDS011;58747;50.674;4.616;2022-12-07T18:57:25;18.70;;;11.77;;
71087;SDS011;58747;50.674;4.616;2022-12-07T18:59:50;16.63;;;10.52;;
71087;SDS011;58747;50.674;4.616;2022-12-07T19:02:16;19.33;;;12.40;;
71087;SDS011;58747;50.674;4.616;2022-12-07T19:04:43;21.15;;;11.52;;
71087;SDS011;58747;50.674;4.616;2022-12-07T19:07:08;24.60;;;12.57;;
71087;SDS011;58747;50.674;4.616;2022-12-07T19:09:34;17.50;;;11.48;;
71087;SDS011;58747;50.674;4.616;2022-12-07T19:11:59;21.37;;;10.63;;
71087;SDS011;58747;50.674;4.616;2022-12-07T19:14:31;21.88;;;12.05;;
71087;SDS011;58747;50.674;4.616;2022-12-07T19:16:59;21.27;;;11.23;;
71087;SDS011;58747;50.674;4.616;2022-12-07T19:19:30;21.35;;;10.25;;
71087;SDS011;58747;50.674;4.616;2022-12-07T19:22:04;15.48;;;10.00;;
71087;SDS011;58747;50.674;4.616;2022-12-07T19:24:30;18.77;;;10.50;;
71087;SDS011;58747;50.674;4.616;2022-12-07T19:26:56;21.87;;;11.83;;
71087;SDS011;58747;50.674;4.616;2022-12-07T19:29:22;16.23;;;9.45;;
71087;SDS011;58747;50.674;4.616;2022-12-07T19:31:47;17.87;;;9.97;;
71087;SDS011;58747;50.674;4.616;2022-12-07T19:34:13;20.77;;;9.23;;
71087;SDS011;58747;50.674;4.616;2022-12-07T19:36:40;17.83;;;9.40;;
71087;SDS011;58747;50.674;4.616;2022-12-07T19:39:05;16.30;;;9.07;;
71087;SDS011;58747;50.674;4.616;2022-12-07T19:41:32;21.60;;;9.30;;
71087;SDS011;58747;50.674;4.616;2022-12-07T19:44:06;17.30;;;9.40;;
71087;SDS011;58747;50.674;4.616;2022-12-07T19:46:36;16.52;;;9.65;;
71087;SDS011;58747;50.674;4.616;2022-12-07T19:49:05;17.23;;;9.20;;
71087;SDS011;58747;50.674;4.616;2022-12-07T19:55:04;16.10;;;7.88;;
71087;SDS011;58747;50.674;4.616;2022-12-07T19:58:07;17.95;;;8.65;;
71087;SDS011;58747;50.674;4.616;2022-12-07T20:05:00;15.02;;;8.63;;
71087;SDS011;58747;50.674;4.616;2022-12-07T20:07:56;16.15;;;7.97;;
71087;SDS011;58747;50.674;4.616;2022-12-07T20:14:09;13.52;;;7.88;;
71087;SDS011;58747;50.674;4.616;2022-12-07T20:20:22;17.70;;;8.57;;
71087;SDS011;58747;50.674;4.616;2022-12-07T20:23:21;22.60;;;9.98;;
71087;SDS011;58747;50.674;4.616;2022-12-07T20:26:08;16.05;;;10.13;;